Create Tblcommutelog Verified Points Advance Search
| # | Trip ID | Id Commuter | Trip Date | Trip Num | Current Lat | Current Lng | Delta Distance | Current Time | Activity | Activity Confidence | Current Speed | |
|---|---|---|---|---|---|---|---|---|---|---|---|---|
| 71621 | 260115_787489_16659390_1732 | 787489 | (not set) | (not set) | 38.90239848203 | -77.187591593071 | 8.5231 | 2026-01-15 17:51:13 | unknown | 100 | 9.8393340903198 | |
| 71622 | 260115_772259_16639517_1722 | 772259 | (not set) | (not set) | 39.0066169 | -77.0847882 | 8.5621 | 2026-01-15 17:51:21 | in_vehicle | 100 | 11.891244289073 | |
| 71623 | 260115_753957_16653467_1708 | 753957 | (not set) | (not set) | 38.92625289753 | -77.036352933868 | 10.7902 | 2026-01-15 17:51:24 | on_foot | 100 | -0.44703925898772 | |
| 71624 | 260115_780998_16648672_1741 | 780998 | (not set) | (not set) | 38.902655099624 | -77.058788640946 | 1.3337 | 2026-01-15 17:51:28 | in_vehicle | 100 | 2.767173013134 | |
| 71625 | 260115_781273_16648948_1705 | 781273 | (not set) | (not set) | 38.988231225645 | -77.095377217787 | 7.5889 | 2026-01-15 17:51:35 | in_vehicle | 100 | -0.44703925898772 | |
| 71626 | 260115_783292_16651014_1604 | 783292 | (not set) | (not set) | 38.862088 | -77.2771893 | 26.7728 | 2026-01-15 17:51:40 | in_vehicle | 100 | 7.8187166396953 | |
| 71627 | 260115_789732_16658643_1747 | 789732 | (not set) | (not set) | 38.900117743797 | -77.039364622978 | 0.2535 | 2026-01-15 17:51:46 | on_foot | 100 | 0 | |
| 71628 | 260115_780473_0_1746 | 780473 | (not set) | (not set) | 38.90505930446 | -77.034655672566 | 0.226 | 2026-01-15 17:51:52 | on_foot | 100 | 0.31739787388128 | |
| 71629 | 260115_787489_16659390_1732 | 787489 | (not set) | (not set) | 38.912077572504 | -77.187640651735 | 9.201 | 2026-01-15 17:51:59 | unknown | 100 | 12.472395325758 | |
| 71630 | 260115_780789_16648466_1752 | 780789 | (not set) | (not set) | 38.932892789851 | -77.261302738795 | 0 | 2026-01-15 17:52:01 | unknown | 100 | 10.433896304773 | |
| 71631 | 260115_789454_16658317_1734 | 789454 | (not set) | (not set) | 38.983500383646 | -76.893247097175 | 8.3131 | 2026-01-15 17:52:07 | in_vehicle | 100 | 7.1839208919327 | |
| 71632 | 260115_791189_16660310_1751 | 791189 | (not set) | (not set) | 38.881934985554 | -77.112278599899 | 0 | 2026-01-15 17:52:11 | on_foot | 100 | -0.44703925898772 | |
| 71633 | 260115_770164_16637262_1724 | 770164 | (not set) | (not set) | 38.878437057613 | -77.137679258657 | 5.8759 | 2026-01-15 17:52:14 | in_vehicle | 100 | 4.3183992418214 | |
| 71634 | 260115_787489_16659390_1732 | 787489 | (not set) | (not set) | 38.91692255362 | -77.192076416293 | 9.6119 | 2026-01-15 17:52:23 | unknown | 100 | 12.400869044319 | |
| 71635 | 260115_770164_16637262_1724 | 770164 | (not set) | (not set) | 38.877507062273 | -77.136392168173 | 5.9704 | 2026-01-15 17:52:29 | in_vehicle | 100 | 4.5374484787254 | |
| 71636 | 260115_783292_16651014_1604 | 783292 | (not set) | (not set) | 38.858422 | -77.2858487 | 27.3098 | 2026-01-15 17:52:35 | in_vehicle | 100 | 7.4744964102747 | |
| 71637 | 260115_791098_16660202_1704 | 791098 | (not set) | (not set) | 39.1632948 | -77.261121 | 15.7086 | 2026-01-15 17:38:16 | in_vehicle | 100 | 12.695914955251 | |
| 71638 | 260115_791098_16660202_1705 | 791098 | (not set) | (not set) | 39.1812615 | -77.2922692 | 17.8668 | 2026-01-15 17:42:24 | in_vehicle | 100 | 14.434897672714 | |
| 71639 | 260115_791098_16660202_1704 | 791098 | (not set) | (not set) | 39.187478 | -77.3233175 | 19.6086 | 2026-01-15 17:45:53 | in_vehicle | 100 | 8.4892755281769 | |
| 71640 | 260115_789050_16657820_1731 | 789050 | (not set) | (not set) | 38.914666798805 | -76.99759889658 | 2.437 | 2026-01-15 17:48:10 | in_vehicle | 100 | 8.229992757964 |